sensor_id;sensor_type;location;lat;lon;timestamp;P1;durP1;ratioP1;P2;durP2;ratioP2
10450;SDS011;5273;51.290;6.918;2023-11-19T00:02:26;30.93;;;17.00;;
10450;SDS011;5273;51.290;6.918;2023-11-19T00:04:52;36.13;;;17.43;;
10450;SDS011;5273;51.290;6.918;2023-11-19T00:07:19;31.43;;;16.23;;
10450;SDS011;5273;51.290;6.918;2023-11-19T00:09:46;29.70;;;17.30;;
10450;SDS011;5273;51.290;6.918;2023-11-19T00:12:13;25.93;;;15.57;;
10450;SDS011;5273;51.290;6.918;2023-11-19T00:14:40;25.37;;;14.53;;
10450;SDS011;5273;51.290;6.918;2023-11-19T00:17:07;26.47;;;14.33;;
10450;SDS011;5273;51.290;6.918;2023-11-19T00:19:35;28.07;;;14.97;;
10450;SDS011;5273;51.290;6.918;2023-11-19T00:22:02;25.23;;;15.93;;
10450;SDS011;5273;51.290;6.918;2023-11-19T00:24:29;31.37;;;17.30;;
10450;SDS011;5273;51.290;6.918;2023-11-19T00:26:56;34.37;;;18.27;;
10450;SDS011;5273;51.290;6.918;2023-11-19T00:29:23;32.53;;;18.17;;
10450;SDS011;5273;51.290;6.918;2023-11-19T00:31:50;38.13;;;20.37;;
10450;SDS011;5273;51.290;6.918;2023-11-19T00:34:17;43.23;;;20.07;;
10450;SDS011;5273;51.290;6.918;2023-11-19T00:36:48;39.20;;;20.03;;
10450;SDS011;5273;51.290;6.918;2023-11-19T00:39:14;37.97;;;18.73;;
10450;SDS011;5273;51.290;6.918;2023-11-19T00:41:43;36.50;;;19.73;;
10450;SDS011;5273;51.290;6.918;2023-11-19T00:44:11;34.27;;;18.80;;
10450;SDS011;5273;51.290;6.918;2023-11-19T00:46:38;43.13;;;21.63;;
10450;SDS011;5273;51.290;6.918;2023-11-19T00:49:05;28.23;;;16.70;;
10450;SDS011;5273;51.290;6.918;2023-11-19T00:51:32;28.98;;;16.10;;
10450;SDS011;5273;51.290;6.918;2023-11-19T00:54:00;29.20;;;16.10;;
10450;SDS011;5273;51.290;6.918;2023-11-19T00:56:27;32.63;;;15.33;;
10450;SDS011;5273;51.290;6.918;2023-11-19T00:58:54;31.07;;;15.80;;
10450;SDS011;5273;51.290;6.918;2023-11-19T01:01:21;31.10;;;14.83;;
10450;SDS011;5273;51.290;6.918;2023-11-19T01:03:48;34.03;;;16.57;;
10450;SDS011;5273;51.290;6.918;2023-11-19T01:06:15;34.80;;;16.60;;
10450;SDS011;5273;51.290;6.918;2023-11-19T01:08:52;32.53;;;14.73;;
10450;SDS011;5273;51.290;6.918;2023-11-19T01:11:21;33.17;;;15.17;;
10450;SDS011;5273;51.290;6.918;2023-11-19T01:13:48;25.10;;;13.07;;
10450;SDS011;5273;51.290;6.918;2023-11-19T01:16:15;32.60;;;13.83;;
10450;SDS011;5273;51.290;6.918;2023-11-19T01:18:42;31.47;;;14.70;;
10450;SDS011;5273;51.290;6.918;2023-11-19T01:21:09;31.67;;;14.20;;
10450;SDS011;5273;51.290;6.918;2023-11-19T01:23:36;30.48;;;13.90;;
10450;SDS011;5273;51.290;6.918;2023-11-19T01:26:03;28.90;;;14.20;;
10450;SDS011;5273;51.290;6.918;2023-11-19T01:28:32;27.33;;;13.77;;
10450;SDS011;5273;51.290;6.918;2023-11-19T01:30:59;24.53;;;12.93;;
10450;SDS011;5273;51.290;6.918;2023-11-19T01:33:26;24.33;;;12.67;;
10450;SDS011;5273;51.290;6.918;2023-11-19T01:35:53;24.10;;;13.90;;
10450;SDS011;5273;51.290;6.918;2023-11-19T01:38:21;25.53;;;13.73;;
10450;SDS011;5273;51.290;6.918;2023-11-19T01:40:47;24.23;;;13.50;;
10450;SDS011;5273;51.290;6.918;2023-11-19T01:46:01;20.17;;;10.63;;
10450;SDS011;5273;51.290;6.918;2023-11-19T01:48:29;16.27;;;8.87;;
10450;SDS011;5273;51.290;6.918;2023-11-19T01:50:57;14.93;;;8.10;;
10450;SDS011;5273;51.290;6.918;2023-11-19T01:53:26;9.27;;;6.32;;
10450;SDS011;5273;51.290;6.918;2023-11-19T01:55:54;8.32;;;5.07;;
10450;SDS011;5273;51.290;6.918;2023-11-19T01:58:21;7.70;;;4.07;;
10450;SDS011;5273;51.290;6.918;2023-11-19T02:00:50;7.57;;;3.70;;
10450;SDS011;5273;51.290;6.918;2023-11-19T02:03:17;7.38;;;3.85;;
10450;SDS011;5273;51.290;6.918;2023-11-19T02:05:46;9.07;;;3.65;;
10450;SDS011;5273;51.290;6.918;2023-11-19T02:08:16;6.05;;;3.88;;
10450;SDS011;5273;51.290;6.918;2023-11-19T02:10:43;7.47;;;3.70;;
10450;SDS011;5273;51.290;6.918;2023-11-19T02:13:09;7.45;;;3.33;;
10450;SDS011;5273;51.290;6.918;2023-11-19T02:15:38;6.65;;;4.05;;
10450;SDS011;5273;51.290;6.918;2023-11-19T02:18:22;7.38;;;4.50;;
10450;SDS011;5273;51.290;6.918;2023-11-19T02:20:52;10.10;;;4.45;;
10450;SDS011;5273;51.290;6.918;2023-11-19T02:23:20;9.02;;;4.43;;
10450;SDS011;5273;51.290;6.918;2023-11-19T02:25:48;9.15;;;4.65;;
10450;SDS011;5273;51.290;6.918;2023-11-19T02:28:30;7.32;;;4.30;;
10450;SDS011;5273;51.290;6.918;2023-11-19T02:30:57;12.95;;;5.05;;
10450;SDS011;5273;51.290;6.918;2023-11-19T02:33:24;10.68;;;5.20;;
10450;SDS011;5273;51.290;6.918;2023-11-19T02:35:51;10.35;;;4.97;;
10450;SDS011;5273;51.290;6.918;2023-11-19T02:38:18;11.52;;;5.13;;
10450;SDS011;5273;51.290;6.918;2023-11-19T02:40:46;7.75;;;4.78;;
10450;SDS011;5273;51.290;6.918;2023-11-19T02:43:14;12.70;;;5.60;;
10450;SDS011;5273;51.290;6.918;2023-11-19T02:45:42;16.73;;;6.32;;
10450;SDS011;5273;51.290;6.918;2023-11-19T02:48:10;13.00;;;5.57;;
10450;SDS011;5273;51.290;6.918;2023-11-19T02:50:39;13.05;;;5.97;;
10450;SDS011;5273;51.290;6.918;2023-11-19T02:53:06;11.30;;;5.82;;
10450;SDS011;5273;51.290;6.918;2023-11-19T02:55:33;16.88;;;6.50;;
10450;SDS011;5273;51.290;6.918;2023-11-19T02:58:02;13.93;;;6.82;;
10450;SDS011;5273;51.290;6.918;2023-11-19T03:00:34;15.85;;;6.85;;
10450;SDS011;5273;51.290;6.918;2023-11-19T03:03:08;15.25;;;6.68;;
10450;SDS011;5273;51.290;6.918;2023-11-19T03:05:45;19.73;;;6.50;;
10450;SDS011;5273;51.290;6.918;2023-11-19T03:08:13;14.98;;;6.60;;
10450;SDS011;5273;51.290;6.918;2023-11-19T03:10:41;17.38;;;6.88;;
10450;SDS011;5273;51.290;6.918;2023-11-19T03:13:10;28.83;;;7.65;;
10450;SDS011;5273;51.290;6.918;2023-11-19T03:15:39;19.52;;;6.80;;
10450;SDS011;5273;51.290;6.918;2023-11-19T03:18:06;18.20;;;7.15;;
10450;SDS011;5273;51.290;6.918;2023-11-19T03:20:34;18.58;;;6.35;;
10450;SDS011;5273;51.290;6.918;2023-11-19T03:23:01;23.40;;;6.87;;
10450;SDS011;5273;51.290;6.918;2023-11-19T03:25:27;14.15;;;6.45;;
10450;SDS011;5273;51.290;6.918;2023-11-19T03:27:58;18.20;;;6.22;;
10450;SDS011;5273;51.290;6.918;2023-11-19T03:30:25;20.55;;;6.72;;
10450;SDS011;5273;51.290;6.918;2023-11-19T03:32:53;17.05;;;6.60;;
10450;SDS011;5273;51.290;6.918;2023-11-19T03:35:20;14.65;;;6.13;;
10450;SDS011;5273;51.290;6.918;2023-11-19T03:37:48;17.70;;;6.70;;
10450;SDS011;5273;51.290;6.918;2023-11-19T03:40:15;18.83;;;5.97;;
10450;SDS011;5273;51.290;6.918;2023-11-19T03:42:43;17.20;;;6.60;;
10450;SDS011;5273;51.290;6.918;2023-11-19T03:45:10;18.77;;;6.53;;
10450;SDS011;5273;51.290;6.918;2023-11-19T03:47:37;19.45;;;6.78;;
10450;SDS011;5273;51.290;6.918;2023-11-19T03:50:05;21.50;;;6.20;;
10450;SDS011;5273;51.290;6.918;2023-11-19T03:52:32;21.55;;;6.20;;
10450;SDS011;5273;51.290;6.918;2023-11-19T03:55:01;22.75;;;6.07;;
10450;SDS011;5273;51.290;6.918;2023-11-19T03:57:28;19.83;;;6.40;;
10450;SDS011;5273;51.290;6.918;2023-11-19T03:59:55;19.27;;;5.80;;
10450;SDS011;5273;51.290;6.918;2023-11-19T04:02:23;21.80;;;5.97;;
10450;SDS011;5273;51.290;6.918;2023-11-19T04:04:52;22.40;;;5.70;;
10450;SDS011;5273;51.290;6.918;2023-11-19T04:07:19;20.60;;;6.30;;
10450;SDS011;5273;51.290;6.918;2023-11-19T04:09:46;20.77;;;6.00;;
10450;SDS011;5273;51.290;6.918;2023-11-19T04:12:14;22.00;;;5.30;;
10450;SDS011;5273;51.290;6.918;2023-11-19T04:14:41;27.95;;;6.18;;
10450;SDS011;5273;51.290;6.918;2023-11-19T04:17:09;18.80;;;5.85;;
10450;SDS011;5273;51.290;6.918;2023-11-19T04:19:36;22.73;;;6.28;;
10450;SDS011;5273;51.290;6.918;2023-11-19T04:22:03;18.65;;;4.97;;
10450;SDS011;5273;51.290;6.918;2023-11-19T04:24:30;24.05;;;5.20;;
10450;SDS011;5273;51.290;6.918;2023-11-19T04:26:56;23.00;;;5.85;;
10450;SDS011;5273;51.290;6.918;2023-11-19T04:29:24;31.55;;;6.63;;
10450;SDS011;5273;51.290;6.918;2023-11-19T04:31:51;28.15;;;6.28;;
10450;SDS011;5273;51.290;6.918;2023-11-19T04:34:18;28.38;;;6.75;;
10450;SDS011;5273;51.290;6.918;2023-11-19T04:36:45;19.88;;;6.57;;
10450;SDS011;5273;51.290;6.918;2023-11-19T04:39:11;32.13;;;6.60;;
10450;SDS011;5273;51.290;6.918;2023-11-19T04:41:47;31.13;;;5.55;;
10450;SDS011;5273;51.290;6.918;2023-11-19T04:44:14;24.67;;;6.07;;
10450;SDS011;5273;51.290;6.918;2023-11-19T04:46:43;27.70;;;5.88;;
10450;SDS011;5273;51.290;6.918;2023-11-19T04:49:10;27.13;;;5.75;;
10450;SDS011;5273;51.290;6.918;2023-11-19T04:51:38;31.20;;;7.07;;
10450;SDS011;5273;51.290;6.918;2023-11-19T04:54:06;31.27;;;6.68;;
10450;SDS011;5273;51.290;6.918;2023-11-19T04:56:34;20.17;;;5.75;;
10450;SDS011;5273;51.290;6.918;2023-11-19T04:59:01;28.00;;;6.38;;
10450;SDS011;5273;51.290;6.918;2023-11-19T05:01:28;32.35;;;5.72;;
10450;SDS011;5273;51.290;6.918;2023-11-19T05:03:57;20.45;;;4.93;;
10450;SDS011;5273;51.290;6.918;2023-11-19T05:06:25;26.98;;;5.40;;
10450;SDS011;5273;51.290;6.918;2023-11-19T05:08:53;22.95;;;5.97;;
10450;SDS011;5273;51.290;6.918;2023-11-19T05:11:20;22.50;;;5.40;;
10450;SDS011;5273;51.290;6.918;2023-11-19T05:13:47;25.40;;;5.57;;
10450;SDS011;5273;51.290;6.918;2023-11-19T05:16:14;25.40;;;5.85;;
10450;SDS011;5273;51.290;6.918;2023-11-19T05:18:40;28.83;;;5.45;;
10450;SDS011;5273;51.290;6.918;2023-11-19T05:21:09;33.58;;;6.10;;
10450;SDS011;5273;51.290;6.918;2023-11-19T05:23:35;31.75;;;6.78;;
10450;SDS011;5273;51.290;6.918;2023-11-19T05:26:02;28.20;;;5.82;;
10450;SDS011;5273;51.290;6.918;2023-11-19T05:28:30;30.55;;;5.35;;
10450;SDS011;5273;51.290;6.918;2023-11-19T05:30:57;33.78;;;5.75;;
10450;SDS011;5273;51.290;6.918;2023-11-19T05:33:24;26.52;;;5.78;;
10450;SDS011;5273;51.290;6.918;2023-11-19T05:35:50;28.55;;;5.30;;
10450;SDS011;5273;51.290;6.918;2023-11-19T05:38:18;26.08;;;6.15;;
10450;SDS011;5273;51.290;6.918;2023-11-19T05:40:46;27.20;;;5.30;;
10450;SDS011;5273;51.290;6.918;2023-11-19T05:43:14;25.90;;;5.90;;
10450;SDS011;5273;51.290;6.918;2023-11-19T05:45:42;21.90;;;4.75;;
10450;SDS011;5273;51.290;6.918;2023-11-19T05:48:09;24.38;;;6.07;;
10450;SDS011;5273;51.290;6.918;2023-11-19T05:50:35;26.05;;;5.40;;
10450;SDS011;5273;51.290;6.918;2023-11-19T05:53:02;24.77;;;5.70;;
10450;SDS011;5273;51.290;6.918;2023-11-19T05:55:33;31.35;;;5.50;;
10450;SDS011;5273;51.290;6.918;2023-11-19T05:58:00;23.23;;;5.25;;
10450;SDS011;5273;51.290;6.918;2023-11-19T06:00:28;31.95;;;6.53;;
10450;SDS011;5273;51.290;6.918;2023-11-19T06:02:55;25.55;;;5.68;;
10450;SDS011;5273;51.290;6.918;2023-11-19T06:05:22;23.55;;;4.95;;
10450;SDS011;5273;51.290;6.918;2023-11-19T06:07:49;31.90;;;5.47;;
10450;SDS011;5273;51.290;6.918;2023-11-19T06:10:16;27.65;;;5.30;;
10450;SDS011;5273;51.290;6.918;2023-11-19T06:12:45;27.92;;;5.57;;
10450;SDS011;5273;51.290;6.918;2023-11-19T06:15:12;27.10;;;4.68;;
10450;SDS011;5273;51.290;6.918;2023-11-19T06:17:39;28.25;;;5.57;;
10450;SDS011;5273;51.290;6.918;2023-11-19T06:20:07;32.70;;;4.70;;
10450;SDS011;5273;51.290;6.918;2023-11-19T06:22:36;29.27;;;5.10;;
10450;SDS011;5273;51.290;6.918;2023-11-19T06:25:03;28.88;;;5.45;;
10450;SDS011;5273;51.290;6.918;2023-11-19T06:27:32;24.23;;;5.30;;
10450;SDS011;5273;51.290;6.918;2023-11-19T06:30:00;26.73;;;5.97;;
10450;SDS011;5273;51.290;6.918;2023-11-19T06:32:27;44.27;;;6.50;;
10450;SDS011;5273;51.290;6.918;2023-11-19T06:34:54;30.90;;;5.95;;
10450;SDS011;5273;51.290;6.918;2023-11-19T06:37:22;27.27;;;6.18;;
10450;SDS011;5273;51.290;6.918;2023-11-19T06:39:48;23.30;;;5.53;;
10450;SDS011;5273;51.290;6.918;2023-11-19T06:42:15;34.15;;;5.30;;
10450;SDS011;5273;51.290;6.918;2023-11-19T06:44:43;25.33;;;5.35;;
10450;SDS011;5273;51.290;6.918;2023-11-19T06:47:11;20.23;;;5.30;;
10450;SDS011;5273;51.290;6.918;2023-11-19T06:49:38;27.30;;;5.57;;
10450;SDS011;5273;51.290;6.918;2023-11-19T06:52:05;28.55;;;6.30;;
10450;SDS011;5273;51.290;6.918;2023-11-19T06:54:32;31.58;;;6.00;;
10450;SDS011;5273;51.290;6.918;2023-11-19T06:56:58;28.57;;;6.57;;
10450;SDS011;5273;51.290;6.918;2023-11-19T06:59:25;24.37;;;5.87;;
10450;SDS011;5273;51.290;6.918;2023-11-19T07:01:54;27.05;;;5.30;;
10450;SDS011;5273;51.290;6.918;2023-11-19T07:04:22;26.77;;;5.57;;
10450;SDS011;5273;51.290;6.918;2023-11-19T07:06:49;22.10;;;4.83;;
10450;SDS011;5273;51.290;6.918;2023-11-19T07:09:17;34.60;;;6.40;;
10450;SDS011;5273;51.290;6.918;2023-11-19T07:11:44;29.37;;;5.17;;
10450;SDS011;5273;51.290;6.918;2023-11-19T07:14:11;26.40;;;5.13;;
10450;SDS011;5273;51.290;6.918;2023-11-19T07:16:38;28.73;;;5.20;;
10450;SDS011;5273;51.290;6.918;2023-11-19T07:19:05;23.97;;;5.00;;
10450;SDS011;5273;51.290;6.918;2023-11-19T07:21:33;37.13;;;5.60;;
10450;SDS011;5273;51.290;6.918;2023-11-19T07:24:04;29.80;;;4.80;;
10450;SDS011;5273;51.290;6.918;2023-11-19T07:26:32;21.23;;;4.27;;
10450;SDS011;5273;51.290;6.918;2023-11-19T07:28:59;51.33;;;5.72;;
10450;SDS011;5273;51.290;6.918;2023-11-19T07:31:26;27.25;;;4.70;;
10450;SDS011;5273;51.290;6.918;2023-11-19T07:33:53;39.00;;;5.20;;
10450;SDS011;5273;51.290;6.918;2023-11-19T07:36:20;29.57;;;4.27;;
10450;SDS011;5273;51.290;6.918;2023-11-19T07:38:48;26.10;;;4.75;;
10450;SDS011;5273;51.290;6.918;2023-11-19T07:41:15;27.55;;;4.43;;
10450;SDS011;5273;51.290;6.918;2023-11-19T07:43:43;19.25;;;4.63;;
10450;SDS011;5273;51.290;6.918;2023-11-19T07:46:11;34.58;;;5.78;;
10450;SDS011;5273;51.290;6.918;2023-11-19T07:48:39;22.63;;;4.43;;
10450;SDS011;5273;51.290;6.918;2023-11-19T07:51:06;23.25;;;4.47;;
10450;SDS011;5273;51.290;6.918;2023-11-19T07:53:33;22.75;;;4.50;;
10450;SDS011;5273;51.290;6.918;2023-11-19T07:56:01;19.85;;;4.47;;
10450;SDS011;5273;51.290;6.918;2023-11-19T07:58:28;20.92;;;4.63;;
10450;SDS011;5273;51.290;6.918;2023-11-19T08:00:55;23.50;;;4.20;;
10450;SDS011;5273;51.290;6.918;2023-11-19T08:03:21;21.75;;;4.68;;
10450;SDS011;5273;51.290;6.918;2023-11-19T08:05:49;22.38;;;4.22;;
10450;SDS011;5273;51.290;6.918;2023-11-19T08:08:16;20.13;;;4.50;;
10450;SDS011;5273;51.290;6.918;2023-11-19T08:10:43;22.92;;;4.65;;
10450;SDS011;5273;51.290;6.918;2023-11-19T08:13:11;22.95;;;4.10;;
10450;SDS011;5273;51.290;6.918;2023-11-19T08:15:38;18.73;;;4.07;;
10450;SDS011;5273;51.290;6.918;2023-11-19T08:18:05;15.52;;;4.68;;
10450;SDS011;5273;51.290;6.918;2023-11-19T08:20:32;21.38;;;4.53;;
10450;SDS011;5273;51.290;6.918;2023-11-19T08:22:59;21.73;;;4.55;;
10450;SDS011;5273;51.290;6.918;2023-11-19T08:25:26;19.83;;;4.25;;
10450;SDS011;5273;51.290;6.918;2023-11-19T08:27:53;17.95;;;3.83;;
10450;SDS011;5273;51.290;6.918;2023-11-19T08:30:22;21.40;;;3.75;;
10450;SDS011;5273;51.290;6.918;2023-11-19T08:32:48;19.65;;;4.65;;
10450;SDS011;5273;51.290;6.918;2023-11-19T08:35:15;20.60;;;4.22;;
10450;SDS011;5273;51.290;6.918;2023-11-19T08:37:42;20.00;;;4.50;;
10450;SDS011;5273;51.290;6.918;2023-11-19T08:40:11;22.80;;;4.10;;
10450;SDS011;5273;51.290;6.918;2023-11-19T08:42:40;23.13;;;3.90;;
10450;SDS011;5273;51.290;6.918;2023-11-19T08:45:07;20.10;;;4.00;;
10450;SDS011;5273;51.290;6.918;2023-11-19T08:47:37;18.95;;;3.70;;
10450;SDS011;5273;51.290;6.918;2023-11-19T08:50:06;24.48;;;4.32;;
10450;SDS011;5273;51.290;6.918;2023-11-19T08:52:33;22.45;;;5.18;;
10450;SDS011;5273;51.290;6.918;2023-11-19T08:55:00;19.73;;;4.70;;
10450;SDS011;5273;51.290;6.918;2023-11-19T08:57:27;26.48;;;5.95;;
10450;SDS011;5273;51.290;6.918;2023-11-19T08:59:54;21.27;;;4.93;;
10450;SDS011;5273;51.290;6.918;2023-11-19T09:02:21;22.83;;;4.35;;
10450;SDS011;5273;51.290;6.918;2023-11-19T09:04:49;20.42;;;4.38;;
10450;SDS011;5273;51.290;6.918;2023-11-19T09:07:16;20.77;;;5.22;;
10450;SDS011;5273;51.290;6.918;2023-11-19T09:09:42;29.05;;;5.45;;
10450;SDS011;5273;51.290;6.918;2023-11-19T09:12:09;21.05;;;5.13;;
10450;SDS011;5273;51.290;6.918;2023-11-19T09:14:36;20.15;;;4.90;;
10450;SDS011;5273;51.290;6.918;2023-11-19T09:17:03;18.55;;;4.07;;
10450;SDS011;5273;51.290;6.918;2023-11-19T09:19:31;19.83;;;4.95;;
10450;SDS011;5273;51.290;6.918;2023-11-19T09:22:02;24.17;;;5.22;;
10450;SDS011;5273;51.290;6.918;2023-11-19T09:24:29;14.93;;;4.28;;
10450;SDS011;5273;51.290;6.918;2023-11-19T09:26:56;25.75;;;5.53;;
10450;SDS011;5273;51.290;6.918;2023-11-19T09:29:22;23.17;;;5.30;;
10450;SDS011;5273;51.290;6.918;2023-11-19T09:31:49;27.23;;;4.80;;
10450;SDS011;5273;51.290;6.918;2023-11-19T09:34:16;26.23;;;4.78;;
10450;SDS011;5273;51.290;6.918;2023-11-19T09:36:43;26.80;;;5.20;;
10450;SDS011;5273;51.290;6.918;2023-11-19T09:39:12;31.40;;;6.07;;
10450;SDS011;5273;51.290;6.918;2023-11-19T09:41:39;22.58;;;4.30;;
10450;SDS011;5273;51.290;6.918;2023-11-19T09:44:07;20.17;;;4.93;;
10450;SDS011;5273;51.290;6.918;2023-11-19T09:46:34;25.75;;;4.72;;
10450;SDS011;5273;51.290;6.918;2023-11-19T09:49:02;19.95;;;4.65;;
10450;SDS011;5273;51.290;6.918;2023-11-19T09:51:32;24.02;;;4.35;;
10450;SDS011;5273;51.290;6.918;2023-11-19T09:53:59;22.80;;;4.47;;
10450;SDS011;5273;51.290;6.918;2023-11-19T09:56:27;22.75;;;4.75;;
10450;SDS011;5273;51.290;6.918;2023-11-19T09:58:55;18.67;;;4.22;;
10450;SDS011;5273;51.290;6.918;2023-11-19T10:01:22;25.13;;;4.95;;
10450;SDS011;5273;51.290;6.918;2023-11-19T10:03:49;33.10;;;5.30;;
10450;SDS011;5273;51.290;6.918;2023-11-19T10:06:17;26.30;;;5.22;;
10450;SDS011;5273;51.290;6.918;2023-11-19T10:08:45;19.50;;;4.75;;
10450;SDS011;5273;51.290;6.918;2023-11-19T10:11:12;32.05;;;5.30;;
10450;SDS011;5273;51.290;6.918;2023-11-19T10:13:41;18.23;;;4.15;;
10450;SDS011;5273;51.290;6.918;2023-11-19T10:16:10;20.05;;;4.57;;
10450;SDS011;5273;51.290;6.918;2023-11-19T10:18:42;25.33;;;5.13;;
10450;SDS011;5273;51.290;6.918;2023-11-19T10:21:11;13.27;;;4.28;;
10450;SDS011;5273;51.290;6.918;2023-11-19T10:23:47;29.23;;;6.28;;
10450;SDS011;5273;51.290;6.918;2023-11-19T10:26:16;21.83;;;4.03;;
10450;SDS011;5273;51.290;6.918;2023-11-19T10:28:45;25.77;;;4.70;;
10450;SDS011;5273;51.290;6.918;2023-11-19T10:31:12;19.73;;;4.45;;
10450;SDS011;5273;51.290;6.918;2023-11-19T10:33:39;17.58;;;4.45;;
10450;SDS011;5273;51.290;6.918;2023-11-19T10:36:07;20.95;;;4.28;;
10450;SDS011;5273;51.290;6.918;2023-11-19T10:38:34;14.82;;;4.40;;
10450;SDS011;5273;51.290;6.918;2023-11-19T10:41:01;20.55;;;5.10;;
10450;SDS011;5273;51.290;6.918;2023-11-19T10:43:29;14.65;;;4.40;;
10450;SDS011;5273;51.290;6.918;2023-11-19T10:46:08;19.40;;;4.35;;
10450;SDS011;5273;51.290;6.918;2023-11-19T10:48:38;27.80;;;4.55;;
10450;SDS011;5273;51.290;6.918;2023-11-19T10:51:05;20.45;;;4.40;;
10450;SDS011;5273;51.290;6.918;2023-11-19T10:53:33;22.65;;;5.13;;
10450;SDS011;5273;51.290;6.918;2023-11-19T10:56:04;20.70;;;4.15;;
10450;SDS011;5273;51.290;6.918;2023-11-19T10:58:36;24.05;;;3.85;;
10450;SDS011;5273;51.290;6.918;2023-11-19T11:01:09;19.00;;;4.22;;
10450;SDS011;5273;51.290;6.918;2023-11-19T11:03:40;17.52;;;3.95;;
10450;SDS011;5273;51.290;6.918;2023-11-19T11:06:08;18.35;;;4.15;;
10450;SDS011;5273;51.290;6.918;2023-11-19T11:08:36;22.50;;;4.57;;
10450;SDS011;5273;51.290;6.918;2023-11-19T11:11:04;23.48;;;4.15;;
10450;SDS011;5273;51.290;6.918;2023-11-19T11:13:32;31.23;;;4.95;;
10450;SDS011;5273;51.290;6.918;2023-11-19T11:16:00;17.63;;;4.13;;
10450;SDS011;5273;51.290;6.918;2023-11-19T11:18:28;19.38;;;4.32;;
10450;SDS011;5273;51.290;6.918;2023-11-19T11:20:56;20.70;;;4.32;;
10450;SDS011;5273;51.290;6.918;2023-11-19T11:23:37;22.25;;;3.78;;
10450;SDS011;5273;51.290;6.918;2023-11-19T11:26:31;19.30;;;4.07;;
10450;SDS011;5273;51.290;6.918;2023-11-19T11:29:10;14.68;;;3.97;;
10450;SDS011;5273;51.290;6.918;2023-11-19T11:31:45;17.17;;;4.43;;
10450;SDS011;5273;51.290;6.918;2023-11-19T11:34:27;19.83;;;4.15;;
10450;SDS011;5273;51.290;6.918;2023-11-19T11:37:06;16.95;;;3.38;;
10450;SDS011;5273;51.290;6.918;2023-11-19T11:39:39;18.98;;;3.60;;
10450;SDS011;5273;51.290;6.918;2023-11-19T11:45:02;21.48;;;4.18;;
10450;SDS011;5273;51.290;6.918;2023-11-19T11:50:50;21.98;;;4.32;;
10450;SDS011;5273;51.290;6.918;2023-11-19T11:53:19;16.05;;;3.78;;
10450;SDS011;5273;51.290;6.918;2023-11-19T11:55:53;14.13;;;3.97;;
10450;SDS011;5273;51.290;6.918;2023-11-19T11:58:21;20.00;;;3.42;;
10450;SDS011;5273;51.290;6.918;2023-11-19T12:00:52;18.42;;;3.53;;
10450;SDS011;5273;51.290;6.918;2023-11-19T12:03:19;17.90;;;3.33;;
10450;SDS011;5273;51.290;6.918;2023-11-19T12:05:48;19.73;;;3.80;;
10450;SDS011;5273;51.290;6.918;2023-11-19T12:08:19;12.57;;;3.00;;
10450;SDS011;5273;51.290;6.918;2023-11-19T12:10:47;23.08;;;3.90;;
10450;SDS011;5273;51.290;6.918;2023-11-19T12:13:15;14.15;;;3.78;;
10450;SDS011;5273;51.290;6.918;2023-11-19T12:18:36;21.55;;;4.10;;
10450;SDS011;5273;51.290;6.918;2023-11-19T12:21:05;16.17;;;4.50;;
10450;SDS011;5273;51.290;6.918;2023-11-19T12:23:36;21.15;;;4.07;;
10450;SDS011;5273;51.290;6.918;2023-11-19T12:29:00;12.45;;;3.28;;
10450;SDS011;5273;51.290;6.918;2023-11-19T12:31:31;12.50;;;3.00;;
10450;SDS011;5273;51.290;6.918;2023-11-19T12:34:00;18.00;;;4.07;;
10450;SDS011;5273;51.290;6.918;2023-11-19T12:36:31;15.57;;;3.53;;
10450;SDS011;5273;51.290;6.918;2023-11-19T12:39:00;12.35;;;3.47;;
10450;SDS011;5273;51.290;6.918;2023-11-19T12:41:27;13.02;;;3.30;;
10450;SDS011;5273;51.290;6.918;2023-11-19T12:43:54;14.50;;;3.40;;
10450;SDS011;5273;51.290;6.918;2023-11-19T12:46:34;12.77;;;4.07;;
10450;SDS011;5273;51.290;6.918;2023-11-19T12:49:01;18.70;;;3.72;;
10450;SDS011;5273;51.290;6.918;2023-11-19T12:51:30;14.57;;;3.15;;
10450;SDS011;5273;51.290;6.918;2023-11-19T12:53:57;16.77;;;3.50;;
10450;SDS011;5273;51.290;6.918;2023-11-19T12:56:25;11.50;;;3.22;;
10450;SDS011;5273;51.290;6.918;2023-11-19T12:58:52;12.50;;;3.80;;
10450;SDS011;5273;51.290;6.918;2023-11-19T13:01:19;11.25;;;2.95;;
10450;SDS011;5273;51.290;6.918;2023-11-19T13:03:47;16.55;;;3.65;;
10450;SDS011;5273;51.290;6.918;2023-11-19T13:06:16;23.33;;;3.55;;
10450;SDS011;5273;51.290;6.918;2023-11-19T13:08:46;11.85;;;3.58;;
10450;SDS011;5273;51.290;6.918;2023-11-19T13:11:15;10.23;;;3.13;;
10450;SDS011;5273;51.290;6.918;2023-11-19T13:13:57;17.02;;;3.13;;
10450;SDS011;5273;51.290;6.918;2023-11-19T13:16:26;16.58;;;3.95;;
10450;SDS011;5273;51.290;6.918;2023-11-19T13:18:53;16.98;;;3.42;;
10450;SDS011;5273;51.290;6.918;2023-11-19T13:21:22;17.02;;;3.10;;
10450;SDS011;5273;51.290;6.918;2023-11-19T13:23:49;12.70;;;3.15;;
10450;SDS011;5273;51.290;6.918;2023-11-19T13:26:16;13.13;;;3.60;;
10450;SDS011;5273;51.290;6.918;2023-11-19T13:28:43;13.18;;;3.65;;
10450;SDS011;5273;51.290;6.918;2023-11-19T13:31:11;16.10;;;3.58;;
10450;SDS011;5273;51.290;6.918;2023-11-19T13:33:38;18.77;;;4.00;;
10450;SDS011;5273;51.290;6.918;2023-11-19T13:36:05;16.08;;;3.65;;
10450;SDS011;5273;51.290;6.918;2023-11-19T13:38:32;18.40;;;3.65;;
10450;SDS011;5273;51.290;6.918;2023-11-19T13:41:00;14.48;;;3.80;;
10450;SDS011;5273;51.290;6.918;2023-11-19T13:43:27;11.80;;;3.10;;
10450;SDS011;5273;51.290;6.918;2023-11-19T13:45:54;11.32;;;3.08;;
10450;SDS011;5273;51.290;6.918;2023-11-19T13:48:22;9.73;;;2.70;;
10450;SDS011;5273;51.290;6.918;2023-11-19T13:50:49;19.98;;;3.67;;
10450;SDS011;5273;51.290;6.918;2023-11-19T13:53:16;14.32;;;3.30;;
10450;SDS011;5273;51.290;6.918;2023-11-19T13:55:43;15.13;;;3.60;;
10450;SDS011;5273;51.290;6.918;2023-11-19T13:58:10;11.68;;;3.35;;
10450;SDS011;5273;51.290;6.918;2023-11-19T14:00:37;14.13;;;3.33;;
10450;SDS011;5273;51.290;6.918;2023-11-19T14:03:04;12.32;;;3.70;;
10450;SDS011;5273;51.290;6.918;2023-11-19T14:05:32;11.88;;;3.05;;
10450;SDS011;5273;51.290;6.918;2023-11-19T14:07:59;17.23;;;3.65;;
10450;SDS011;5273;51.290;6.918;2023-11-19T14:10:26;19.27;;;4.32;;
10450;SDS011;5273;51.290;6.918;2023-11-19T14:12:53;19.85;;;3.85;;
10450;SDS011;5273;51.290;6.918;2023-11-19T14:15:20;14.13;;;3.75;;
10450;SDS011;5273;51.290;6.918;2023-11-19T14:17:47;12.73;;;3.83;;
10450;SDS011;5273;51.290;6.918;2023-11-19T14:20:14;19.45;;;4.43;;
10450;SDS011;5273;51.290;6.918;2023-11-19T14:22:44;19.08;;;4.70;;
10450;SDS011;5273;51.290;6.918;2023-11-19T14:25:13;22.98;;;4.40;;
10450;SDS011;5273;51.290;6.918;2023-11-19T14:27:41;23.13;;;4.15;;
10450;SDS011;5273;51.290;6.918;2023-11-19T14:30:11;19.02;;;3.88;;
10450;SDS011;5273;51.290;6.918;2023-11-19T14:32:39;16.05;;;4.50;;
10450;SDS011;5273;51.290;6.918;2023-11-19T14:35:08;18.02;;;4.05;;
10450;SDS011;5273;51.290;6.918;2023-11-19T14:37:36;12.18;;;3.55;;
10450;SDS011;5273;51.290;6.918;2023-11-19T14:40:03;15.18;;;3.88;;
10450;SDS011;5273;51.290;6.918;2023-11-19T14:42:32;20.42;;;4.30;;
10450;SDS011;5273;51.290;6.918;2023-11-19T14:44:59;20.13;;;3.83;;
10450;SDS011;5273;51.290;6.918;2023-11-19T14:47:26;21.35;;;4.10;;
10450;SDS011;5273;51.290;6.918;2023-11-19T14:49:54;18.40;;;3.90;;
10450;SDS011;5273;51.290;6.918;2023-11-19T14:52:21;18.38;;;3.75;;
10450;SDS011;5273;51.290;6.918;2023-11-19T14:54:48;32.72;;;4.63;;
10450;SDS011;5273;51.290;6.918;2023-11-19T14:57:18;18.02;;;4.07;;
10450;SDS011;5273;51.290;6.918;2023-11-19T14:59:45;18.60;;;4.15;;
10450;SDS011;5273;51.290;6.918;2023-11-19T15:02:12;19.17;;;4.85;;
10450;SDS011;5273;51.290;6.918;2023-11-19T15:04:39;20.02;;;3.78;;
10450;SDS011;5273;51.290;6.918;2023-11-19T15:07:06;19.38;;;4.65;;